Time;durP1;ratioP1;P1;durP2;ratioP2;P2;SDS_P1;SDS_P2;PMS_P1;PMS_P2;Temp;Humidity;BMP_temperature;BMP_pressure;BME280_temperature;BME280_humidity;BME280_pressure;Samples;Min_cycle;Max_cycle;Signal;HPM_P1;HPM_P2
2022/08/15 00:00:42;;;;;;;5.40;1.85;;;;;;;;;;5026189;28;20059;-40
2022/08/15 00:03:17;;;;;;;5.72;2.05;;;;;;;;;;5020471;28;20057;-39
2022/08/15 00:05:43;;;;;;;4.17;1.50;;;;;;;;;;5020543;28;20084;-40
2022/08/15 00:08:10;;;;;;;6.30;2.20;;;;;;;;;;5022062;28;20053;-39
2022/08/15 00:10:37;;;;;;;5.40;1.70;;;;;;;;;;5006149;28;20049;-39
2022/08/15 00:13:09;;;;;;;7.82;2.05;;;;;;;;;;5022479;28;20045;-40
2022/08/15 00:15:38;;;;;;;5.50;1.85;;;;;;;;;;5017035;28;20103;-41
2022/08/15 00:18:05;;;;;;;6.03;1.90;;;;;;;;;;5026691;28;20041;-42
2022/08/15 00:20:32;;;;;;;5.15;1.95;;;;;;;;;;5019682;28;20049;-39
2022/08/15 00:22:59;;;;;;;4.38;1.88;;;;;;;;;;5024325;28;20123;-39
2022/08/15 00:25:25;;;;;;;7.15;1.52;;;;;;;;;;5013724;28;20057;-39
2022/08/15 00:27:52;;;;;;;4.70;1.70;;;;;;;;;;5026456;28;20050;-39
2022/08/15 00:30:18;;;;;;;5.67;2.00;;;;;;;;;;5004158;28;20577;-39
2022/08/15 00:32:55;;;;;;;7.97;1.38;;;;;;;;;;5013592;28;20088;-38
2022/08/15 00:35:39;;;;;;;5.47;1.70;;;;;;;;;;5024532;28;20052;-38
2022/08/15 00:38:06;;;;;;;6.00;1.80;;;;;;;;;;5025130;28;20061;-40
2022/08/15 00:41:38;;;;;;;7.28;1.60;;;;;;;;;;5014184;28;20067;-39
2022/08/15 00:43:18;;;;;;;5.13;1.60;;;;;;;;;;5024477;28;20058;-40
2022/08/15 00:45:45;;;;;;;5.07;1.67;;;;;;;;;;5006357;28;20065;-39
2022/08/15 00:50:58;;;;;;;6.03;1.75;;;;;;;;;;5021053;28;20050;-39
2022/08/15 00:53:25;;;;;;;6.03;2.20;;;;;;;;;;5021633;28;20109;-39
2022/08/15 00:55:52;;;;;;;6.15;1.85;;;;;;;;;;5021626;28;20046;-39
2022/08/15 00:58:20;;;;;;;4.70;1.60;;;;;;;;;;5012138;28;20052;-39
2022/08/15 01:00:48;;;;;;;6.53;1.60;;;;;;;;;;5014084;28;20051;-39
2022/08/15 01:03:17;;;;;;;4.85;1.73;;;;;;;;;;5021562;28;20050;-42
2022/08/15 01:05:45;;;;;;;3.93;1.20;;;;;;;;;;5014151;28;20045;-39
2022/08/15 01:08:14;;;;;;;4.97;1.65;;;;;;;;;;5022203;28;20046;-39
2022/08/15 01:10:41;;;;;;;4.45;1.60;;;;;;;;;;5016070;28;20044;-38
2022/08/15 01:13:08;;;;;;;6.63;1.80;;;;;;;;;;4976669;28;20121;-40
2022/08/15 01:15:34;;;;;;;4.03;1.60;;;;;;;;;;5012170;28;20742;-39
2022/08/15 01:18:01;;;;;;;4.60;1.93;;;;;;;;;;5024946;28;20067;-38
2022/08/15 01:20:31;;;;;;;6.35;1.52;;;;;;;;;;5014988;28;20058;-40
2022/08/15 01:23:04;;;;;;;6.10;1.60;;;;;;;;;;5015890;28;20053;-40
2022/08/15 01:25:36;;;;;;;4.57;1.55;;;;;;;;;;5009157;28;20073;-40
2022/08/15 01:28:05;;;;;;;4.28;1.60;;;;;;;;;;5010707;28;20519;-38
2022/08/15 01:30:33;;;;;;;13.33;2.37;;;;;;;;;;5018263;28;20053;-40
2022/08/15 01:33:00;;;;;;;6.35;1.85;;;;;;;;;;5001454;28;20057;-39
2022/08/15 01:35:28;;;;;;;5.13;2.08;;;;;;;;;;5019277;28;20061;-39
2022/08/15 01:37:55;;;;;;;6.40;1.88;;;;;;;;;;4999356;28;20117;-39
2022/08/15 01:40:27;;;;;;;5.55;1.60;;;;;;;;;;4998804;28;20076;-40
2022/08/15 01:42:57;;;;;;;5.30;1.70;;;;;;;;;;5010354;28;20084;-39
2022/08/15 01:45:26;;;;;;;6.38;1.60;;;;;;;;;;4992264;28;20053;-39
2022/08/15 01:47:55;;;;;;;4.70;2.10;;;;;;;;;;5010041;28;20060;-39
2022/08/15 01:50:24;;;;;;;4.40;1.50;;;;;;;;;;5009356;28;20357;-39
2022/08/15 01:52:56;;;;;;;4.70;1.65;;;;;;;;;;4989960;28;20072;-39
2022/08/15 01:55:27;;;;;;;4.57;1.60;;;;;;;;;;5019187;28;20058;-38
2022/08/15 01:57:53;;;;;;;4.50;1.35;;;;;;;;;;4998716;28;20046;-38
2022/08/15 02:00:21;;;;;;;5.38;1.48;;;;;;;;;;5018035;28;20498;-39
2022/08/15 02:02:48;;;;;;;5.03;1.50;;;;;;;;;;4995342;28;20193;-39
2022/08/15 02:05:14;;;;;;;4.38;1.50;;;;;;;;;;5011929;28;20053;-39
2022/08/15 02:07:41;;;;;;;6.87;1.63;;;;;;;;;;5000948;28;20045;-40
2022/08/15 02:10:09;;;;;;;5.97;1.58;;;;;;;;;;5017327;28;20119;-39
2022/08/15 02:12:37;;;;;;;5.20;1.35;;;;;;;;;;5009491;28;20574;-44
2022/08/15 02:15:06;;;;;;;6.22;1.60;;;;;;;;;;5017390;28;20057;-39
2022/08/15 02:17:34;;;;;;;5.00;1.33;;;;;;;;;;5004066;28;20076;-39
2022/08/15 02:20:01;;;;;;;3.63;1.33;;;;;;;;;;5014561;28;20107;-38
2022/08/15 02:22:28;;;;;;;4.35;1.50;;;;;;;;;;5020864;28;20045;-40
2022/08/15 02:24:55;;;;;;;4.00;1.40;;;;;;;;;;5011976;28;20049;-39
2022/08/15 02:27:22;;;;;;;4.20;1.50;;;;;;;;;;5018867;28;20064;-39
2022/08/15 02:29:49;;;;;;;6.50;1.27;;;;;;;;;;4993764;28;20160;-41
2022/08/15 02:32:17;;;;;;;4.67;1.30;;;;;;;;;;5014134;28;20051;-42
2022/08/15 02:34:46;;;;;;;5.40;1.73;;;;;;;;;;5012098;28;20431;-39
2022/08/15 02:37:18;;;;;;;4.93;1.17;;;;;;;;;;5012453;28;20046;-39
2022/08/15 02:39:45;;;;;;;4.00;1.50;;;;;;;;;;5012891;28;20760;-41
2022/08/15 02:42:12;;;;;;;4.20;1.38;;;;;;;;;;5018150;28;20057;-40
2022/08/15 02:44:38;;;;;;;4.40;1.33;;;;;;;;;;5015365;28;20045;-41
2022/08/15 02:47:05;;;;;;;4.55;1.50;;;;;;;;;;5014721;28;20049;-38
2022/08/15 02:49:33;;;;;;;6.20;1.60;;;;;;;;;;5016773;28;20073;-38
2022/08/15 02:52:01;;;;;;;6.57;1.80;;;;;;;;;;4996832;28;20045;-39
2022/08/15 02:54:28;;;;;;;5.03;1.80;;;;;;;;;;5009005;28;20302;-39
2022/08/15 02:56:55;;;;;;;5.30;1.57;;;;;;;;;;5006258;28;20407;-39
2022/08/15 02:59:22;;;;;;;4.90;1.65;;;;;;;;;;4999706;28;20144;-40
2022/08/15 03:01:49;;;;;;;5.30;1.45;;;;;;;;;;5016436;28;20092;-39
2022/08/15 03:04:19;;;;;;;4.70;1.63;;;;;;;;;;5012065;28;20053;-42
2022/08/15 03:06:45;;;;;;;7.85;1.73;;;;;;;;;;5010633;28;20048;-39
2022/08/15 03:09:14;;;;;;;5.73;1.70;;;;;;;;;;5021302;28;20060;-41
2022/08/15 03:11:43;;;;;;;4.82;1.88;;;;;;;;;;5003637;28;20786;-38
2022/08/15 03:14:12;;;;;;;5.80;2.42;;;;;;;;;;5017436;28;20058;-39
2022/08/15 03:16:43;;;;;;;4.97;1.75;;;;;;;;;;5009879;28;20342;-39
2022/08/15 03:19:10;;;;;;;6.40;1.70;;;;;;;;;;5017396;28;20046;-39
2022/08/15 03:21:37;;;;;;;5.03;1.50;;;;;;;;;;5002542;28;20049;-40
2022/08/15 03:24:04;;;;;;;5.07;1.70;;;;;;;;;;5021576;28;20067;-39
2022/08/15 03:26:32;;;;;;;4.00;1.48;;;;;;;;;;5009817;28;20049;-43
2022/08/15 03:28:59;;;;;;;5.28;1.50;;;;;;;;;;5021902;28;20055;-41
2022/08/15 03:31:26;;;;;;;4.28;1.50;;;;;;;;;;4984769;28;20125;-40
2022/08/15 03:33:52;;;;;;;5.53;1.47;;;;;;;;;;5015034;28;20076;-40
2022/08/15 03:36:20;;;;;;;5.43;1.35;;;;;;;;;;4998688;28;20482;-40
2022/08/15 03:38:47;;;;;;;5.28;1.45;;;;;;;;;;5008577;28;20233;-38
2022/08/15 03:41:14;;;;;;;4.88;1.77;;;;;;;;;;5025861;28;20054;-42
2022/08/15 03:43:43;;;;;;;6.25;2.00;;;;;;;;;;5008096;28;20126;-39
2022/08/15 03:46:11;;;;;;;4.00;1.10;;;;;;;;;;5016460;28;20117;-39
2022/08/15 03:48:38;;;;;;;4.22;1.30;;;;;;;;;;4999645;28;20566;-39
2022/08/15 03:51:07;;;;;;;5.15;1.42;;;;;;;;;;5020473;28;20054;-39
2022/08/15 03:53:35;;;;;;;4.75;1.83;;;;;;;;;;5009541;28;20092;-39
2022/08/15 03:56:03;;;;;;;4.35;1.70;;;;;;;;;;5009959;28;20049;-39
2022/08/15 03:58:30;;;;;;;4.07;1.60;;;;;;;;;;5011718;28;20053;-39
2022/08/15 04:00:58;;;;;;;6.82;1.70;;;;;;;;;;5019777;28;20033;-40
2022/08/15 04:03:28;;;;;;;4.20;1.30;;;;;;;;;;5007593;28;20049;-38
2022/08/15 04:05:57;;;;;;;5.07;1.58;;;;;;;;;;5017958;28;20041;-40
2022/08/15 04:08:26;;;;;;;4.72;1.70;;;;;;;;;;5017675;28;20064;-39
2022/08/15 04:10:53;;;;;;;3.90;1.50;;;;;;;;;;5022391;28;20077;-40
2022/08/15 04:13:24;;;;;;;5.32;1.55;;;;;;;;;;4998326;28;20772;-40
2022/08/15 04:15:51;;;;;;;6.38;1.30;;;;;;;;;;5022754;28;20060;-39
2022/08/15 04:18:20;;;;;;;4.25;1.38;;;;;;;;;;5011049;28;20050;-39
2022/08/15 04:20:46;;;;;;;8.32;1.92;;;;;;;;;;5024737;28;20108;-39
2022/08/15 04:23:13;;;;;;;3.87;1.40;;;;;;;;;;5005773;28;20076;-39
2022/08/15 04:25:40;;;;;;;5.13;1.52;;;;;;;;;;5026550;28;20064;-40
2022/08/15 04:28:07;;;;;;;5.13;1.80;;;;;;;;;;5012098;28;20060;-39
2022/08/15 04:30:34;;;;;;;4.90;1.30;;;;;;;;;;5022767;28;20049;-40
2022/08/15 04:33:12;;;;;;;6.63;1.52;;;;;;;;;;4981651;28;20505;-39
2022/08/15 04:35:41;;;;;;;6.50;1.50;;;;;;;;;;5014934;28;20057;-38
2022/08/15 04:38:08;;;;;;;6.60;1.20;;;;;;;;;;5015158;28;20046;-38
2022/08/15 04:40:35;;;;;;;9.60;2.35;;;;;;;;;;5023292;28;20092;-40
2022/08/15 04:43:02;;;;;;;7.20;1.40;;;;;;;;;;5010796;28;21192;-40
2022/08/15 04:45:30;;;;;;;6.47;1.48;;;;;;;;;;5020673;28;20061;-39
2022/08/15 04:47:56;;;;;;;5.07;1.70;;;;;;;;;;5003549;28;20746;-40
2022/08/15 04:50:23;;;;;;;3.90;1.17;;;;;;;;;;5025343;28;20115;-39
2022/08/15 04:52:53;;;;;;;4.90;1.30;;;;;;;;;;5007032;28;20072;-39
2022/08/15 04:55:20;;;;;;;5.80;1.83;;;;;;;;;;4991527;28;20050;-38
2022/08/15 04:57:47;;;;;;;5.25;1.60;;;;;;;;;;5023075;28;20113;-40
2022/08/15 05:00:15;;;;;;;4.80;1.57;;;;;;;;;;5013716;28;20065;-41
2022/08/15 05:02:42;;;;;;;4.72;1.50;;;;;;;;;;5022271;28;20458;-42
2022/08/15 05:05:09;;;;;;;6.68;2.17;;;;;;;;;;5015531;28;20884;-40
2022/08/15 05:07:36;;;;;;;5.70;1.52;;;;;;;;;;5021844;28;20060;-38
2022/08/15 05:10:05;;;;;;;4.53;1.50;;;;;;;;;;5015825;28;20054;-39
2022/08/15 05:12:32;;;;;;;5.23;1.47;;;;;;;;;;5019764;28;20056;-40
2022/08/15 05:14:58;;;;;;;5.85;1.98;;;;;;;;;;5005565;28;20049;-39
2022/08/15 05:17:25;;;;;;;5.32;1.63;;;;;;;;;;5019025;28;20056;-41
2022/08/15 05:19:51;;;;;;;5.35;1.60;;;;;;;;;;5015859;28;20049;-39
2022/08/15 05:22:18;;;;;;;7.45;2.50;;;;;;;;;;5022145;28;20041;-39
2022/08/15 05:24:44;;;;;;;5.87;2.30;;;;;;;;;;5011759;28;20585;-38
2022/08/15 05:27:12;;;;;;;5.55;2.20;;;;;;;;;;5024569;28;20034;-39
2022/08/15 05:29:41;;;;;;;6.07;2.20;;;;;;;;;;5009319;28;20046;-39
2022/08/15 05:32:08;;;;;;;5.43;2.10;;;;;;;;;;5025042;28;20522;-39
2022/08/15 05:34:34;;;;;;;6.97;2.13;;;;;;;;;;5009816;28;20049;-39
2022/08/15 05:37:01;;;;;;;6.27;2.10;;;;;;;;;;5014023;28;20046;-39
2022/08/15 05:39:29;;;;;;;5.30;2.42;;;;;;;;;;5012276;28;20541;-38
2022/08/15 05:42:03;;;;;;;7.10;2.40;;;;;;;;;;5020375;28;20087;-39
2022/08/15 05:44:35;;;;;;;5.40;2.60;;;;;;;;;;5005146;28;20792;-39
2022/08/15 05:47:06;;;;;;;6.60;3.00;;;;;;;;;;5023067;28;20049;-40
2022/08/15 05:49:36;;;;;;;8.77;3.40;;;;;;;;;;5010443;28;20116;-40
2022/08/15 05:52:06;;;;;;;8.45;4.05;;;;;;;;;;5023592;28;20057;-40
2022/08/15 05:54:37;;;;;;;7.22;3.70;;;;;;;;;;5011730;28;20145;-38
2022/08/15 05:57:05;;;;;;;7.40;4.47;;;;;;;;;;5003885;28;20045;-39
2022/08/15 05:59:35;;;;;;;7.72;3.90;;;;;;;;;;5021123;28;20085;-39
2022/08/15 06:02:06;;;;;;;7.83;4.00;;;;;;;;;;5010313;28;20049;-39
2022/08/15 06:04:38;;;;;;;10.02;4.32;;;;;;;;;;5021291;28;20241;-39
2022/08/15 06:07:06;;;;;;;9.02;4.30;;;;;;;;;;5016228;28;20065;-39
2022/08/15 06:09:35;;;;;;;9.90;4.63;;;;;;;;;;5021025;28;20046;-39
2022/08/15 06:12:04;;;;;;;9.10;4.53;;;;;;;;;;5011214;28;20090;-39
2022/08/15 06:14:32;;;;;;;9.03;4.73;;;;;;;;;;5018254;28;20053;-40
2022/08/15 06:17:03;;;;;;;8.73;4.88;;;;;;;;;;5017263;28;20046;-39
2022/08/15 06:19:32;;;;;;;7.82;4.65;;;;;;;;;;5013459;28;20037;-39
2022/08/15 06:22:05;;;;;;;12.38;5.32;;;;;;;;;;5020729;28;20068;-39
2022/08/15 06:24:37;;;;;;;9.85;5.07;;;;;;;;;;5007632;28;21326;-38
2022/08/15 06:27:09;;;;;;;9.53;5.50;;;;;;;;;;5016351;28;20049;-40
2022/08/15 06:29:45;;;;;;;9.70;5.47;;;;;;;;;;5003952;28;20111;-44
2022/08/15 06:32:14;;;;;;;11.02;5.28;;;;;;;;;;5014798;28;20057;-39
2022/08/15 06:34:44;;;;;;;10.90;4.68;;;;;;;;;;5017863;28;20046;-39
2022/08/15 06:37:14;;;;;;;9.18;4.70;;;;;;;;;;5015033;28;20058;-39
2022/08/15 06:39:45;;;;;;;7.03;3.77;;;;;;;;;;4989278;28;20762;-40
2022/08/15 06:42:17;;;;;;;9.52;4.63;;;;;;;;;;5015858;28;20059;-39
2022/08/15 06:44:43;;;;;;;8.73;4.22;;;;;;;;;;5011670;28;20076;-39
2022/08/15 06:47:10;;;;;;;7.70;3.92;;;;;;;;;;5023795;28;20050;-40
2022/08/15 06:49:40;;;;;;;6.38;3.60;;;;;;;;;;5013238;28;20084;-39
2022/08/15 06:52:08;;;;;;;6.47;3.70;;;;;;;;;;5016918;28;20049;-38
2022/08/15 06:54:36;;;;;;;6.55;3.40;;;;;;;;;;5007482;28;20080;-39
2022/08/15 06:57:08;;;;;;;7.15;3.10;;;;;;;;;;5016155;28;20054;-40
2022/08/15 06:59:39;;;;;;;7.88;3.45;;;;;;;;;;5015793;28;20046;-40
2022/08/15 07:02:13;;;;;;;6.57;3.45;;;;;;;;;;5014524;28;20064;-41
2022/08/15 07:04:45;;;;;;;8.53;3.47;;;;;;;;;;5019285;28;20050;-40
2022/08/15 07:07:13;;;;;;;8.05;3.20;;;;;;;;;;5005390;28;20052;-39
2022/08/15 07:09:44;;;;;;;8.93;3.65;;;;;;;;;;5019832;28;20073;-40
2022/08/15 07:12:16;;;;;;;7.90;3.30;;;;;;;;;;5002756;28;20299;-39
2022/08/15 07:14:48;;;;;;;9.38;3.45;;;;;;;;;;5021071;28;20072;-39
2022/08/15 07:17:18;;;;;;;6.97;3.10;;;;;;;;;;5005063;28;20049;-40
2022/08/15 07:19:46;;;;;;;11.02;3.60;;;;;;;;;;4998770;28;21173;-39
2022/08/15 07:22:12;;;;;;;9.40;3.70;;;;;;;;;;5021026;28;20057;-40
2022/08/15 07:24:47;;;;;;;7.43;3.67;;;;;;;;;;5007073;28;20143;-39
2022/08/15 07:27:15;;;;;;;6.15;3.72;;;;;;;;;;5014419;28;20511;-39
2022/08/15 07:29:44;;;;;;;7.03;3.70;;;;;;;;;;5008508;28;20049;-39
2022/08/15 07:32:12;;;;;;;8.00;3.78;;;;;;;;;;5019781;28;20050;-40
2022/08/15 07:34:52;;;;;;;7.32;4.22;;;;;;;;;;5013837;28;20049;-38
2022/08/15 07:37:22;;;;;;;6.72;3.97;;;;;;;;;;5007174;28;20168;-38
2022/08/15 07:39:57;;;;;;;10.68;3.63;;;;;;;;;;5007951;28;20049;-38
2022/08/15 07:42:24;;;;;;;7.00;4.00;;;;;;;;;;5021249;28;20064;-40
2022/08/15 07:44:54;;;;;;;9.10;4.97;;;;;;;;;;5000284;28;20473;-39
2022/08/15 07:47:25;;;;;;;9.50;4.22;;;;;;;;;;5019558;28;20045;-39
2022/08/15 07:49:59;;;;;;;8.27;4.57;;;;;;;;;;5016508;28;20049;-39
2022/08/15 07:52:55;;;;;;;8.43;5.60;;;;;;;;;;5006713;28;10001004;-39
2022/08/15 07:55:23;;;;;;;10.20;4.45;;;;;;;;;;5017435;28;20283;-39
2022/08/15 07:57:59;;;;;;;12.68;4.70;;;;;;;;;;5016222;28;20053;-38
2022/08/15 08:00:34;;;;;;;7.85;4.60;;;;;;;;;;5012924;28;20049;-39
2022/08/15 08:03:03;;;;;;;11.55;5.03;;;;;;;;;;5015160;28;20562;-39
2022/08/15 08:05:31;;;;;;;9.60;4.80;;;;;;;;;;5000356;28;20045;-39
2022/08/15 08:08:02;;;;;;;9.18;4.82;;;;;;;;;;5011320;28;20898;-41
2022/08/15 08:10:32;;;;;;;10.75;4.63;;;;;;;;;;5020499;28;20106;-40
2022/08/15 08:13:06;;;;;;;8.30;4.78;;;;;;;;;;5013680;28;20050;-40
2022/08/15 08:15:36;;;;;;;9.13;4.72;;;;;;;;;;5011990;28;20050;-39
2022/08/15 08:18:04;;;;;;;12.70;6.17;;;;;;;;;;4664975;28;10000038;-40
2022/08/15 08:20:34;;;;;;;12.82;6.45;;;;;;;;;;4979210;28;20401;-40
2022/08/15 08:23:04;;;;;;;9.73;6.07;;;;;;;;;;4975752;28;20045;-39
2022/08/15 08:25:38;;;;;;;10.15;6.70;;;;;;;;;;4981671;28;20550;-39
2022/08/15 08:28:10;;;;;;;12.93;7.38;;;;;;;;;;4999412;28;20084;-39
2022/08/15 08:30:40;;;;;;;12.98;6.90;;;;;;;;;;4999102;28;20081;-40
2022/08/15 08:33:12;;;;;;;13.70;6.53;;;;;;;;;;5001081;28;20053;-40
2022/08/15 08:35:41;;;;;;;10.53;6.57;;;;;;;;;;5009903;28;20125;-39
2022/08/15 08:38:14;;;;;;;11.98;7.13;;;;;;;;;;5007843;28;20041;-39
2022/08/15 08:43:36;;;;;;;14.32;8.48;;;;;;;;;;4991760;28;20060;-41
2022/08/15 08:46:06;;;;;;;12.25;7.57;;;;;;;;;;5000240;28;20053;-41
2022/08/15 08:48:40;;;;;;;14.67;8.57;;;;;;;;;;4999510;28;20057;-40
2022/08/15 08:51:09;;;;;;;12.32;7.78;;;;;;;;;;4995734;28;20053;-40
2022/08/15 08:53:41;;;;;;;17.45;8.27;;;;;;;;;;5003321;28;20144;-42
2022/08/15 08:56:13;;;;;;;14.82;8.52;;;;;;;;;;5006855;28;20069;-44
2022/08/15 08:58:42;;;;;;;13.18;8.32;;;;;;;;;;4987478;28;20644;-40
2022/08/15 09:01:11;;;;;;;13.23;8.53;;;;;;;;;;5001866;28;20628;-43
2022/08/15 09:03:40;;;;;;;16.50;8.45;;;;;;;;;;4985512;28;20046;-40
2022/08/15 09:06:10;;;;;;;11.82;7.95;;;;;;;;;;4992356;28;20054;-42
2022/08/15 09:08:41;;;;;;;13.57;8.85;;;;;;;;;;4987476;28;21877;-40
2022/08/15 09:11:10;;;;;;;18.08;8.90;;;;;;;;;;5016942;28;20065;-41
2022/08/15 09:13:40;;;;;;;15.70;9.27;;;;;;;;;;5021116;28;20059;-41
2022/08/15 09:16:12;;;;;;;16.67;8.60;;;;;;;;;;5017757;28;20057;-40
2022/08/15 09:18:43;;;;;;;14.18;8.25;;;;;;;;;;5016846;28;20053;-40
2022/08/15 09:21:10;;;;;;;12.43;8.75;;;;;;;;;;5007229;28;20052;-42
2022/08/15 09:23:38;;;;;;;16.77;8.35;;;;;;;;;;5019187;28;20139;-40
2022/08/15 09:26:09;;;;;;;16.43;8.73;;;;;;;;;;5004517;28;21400;-40
2022/08/15 09:28:37;;;;;;;12.77;8.23;;;;;;;;;;5016976;28;20079;-41
2022/08/15 09:31:07;;;;;;;15.07;7.80;;;;;;;;;;5013722;28;20042;-42
2022/08/15 09:33:50;;;;;;;15.82;8.00;;;;;;;;;;5022783;28;20050;-39
2022/08/15 09:36:27;;;;;;;16.70;8.13;;;;;;;;;;5019904;28;20053;-42
2022/08/15 09:38:56;;;;;;;13.17;7.37;;;;;;;;;;5008752;28;20049;-40
2022/08/15 09:41:44;;;;;;;14.23;8.15;;;;;;;;;;5009060;28;20052;-41
2022/08/15 09:44:23;;;;;;;12.05;8.10;;;;;;;;;;5004686;28;20052;-40
2022/08/15 09:47:01;;;;;;;19.55;7.95;;;;;;;;;;5015380;28;20042;-40
2022/08/15 09:49:42;;;;;;;11.27;7.85;;;;;;;;;;5017397;28;20459;-41
2022/08/15 09:52:18;;;;;;;15.23;8.27;;;;;;;;;;5021477;28;20058;-40
2022/08/15 09:54:47;;;;;;;12.38;7.70;;;;;;;;;;5020258;28;20308;-39
2022/08/15 09:57:31;;;;;;;12.93;7.60;;;;;;;;;;5009953;28;20050;-40
2022/08/15 10:00:02;;;;;;;13.32;7.50;;;;;;;;;;5021271;28;20105;-41
2022/08/15 10:02:32;;;;;;;12.82;7.28;;;;;;;;;;5010222;28;20152;-42
2022/08/15 10:05:10;;;;;;;12.03;7.10;;;;;;;;;;5014720;28;20087;-41
2022/08/15 10:07:46;;;;;;;11.77;6.90;;;;;;;;;;5020751;28;20525;-40
2022/08/15 10:10:15;;;;;;;13.52;7.82;;;;;;;;;;5012814;28;20057;-40
2022/08/15 10:12:57;;;;;;;11.60;7.10;;;;;;;;;;4993357;28;20109;-39
2022/08/15 10:15:32;;;;;;;12.40;6.68;;;;;;;;;;5014976;28;20431;-41
2022/08/15 10:17:59;;;;;;;13.37;6.67;;;;;;;;;;4328189;28;10000450;-40
2022/08/15 10:20:49;;;;;;;12.95;7.80;;;;;;;;;;5007458;28;20072;-40
2022/08/15 10:23:16;;;;;;;15.47;7.33;;;;;;;;;;4991432;28;20045;-39
2022/08/15 10:25:43;;;;;;;12.35;7.00;;;;;;;;;;5001081;28;20076;-40
2022/08/15 10:28:25;;;;;;;11.65;7.57;;;;;;;;;;4977368;28;20748;-40
2022/08/15 10:31:09;;;;;;;10.27;6.38;;;;;;;;;;4994034;28;20051;-39
2022/08/15 10:33:44;;;;;;;9.80;6.20;;;;;;;;;;5010071;28;20057;-40
2022/08/15 10:36:18;;;;;;;11.13;5.70;;;;;;;;;;5012241;28;20136;-40
2022/08/15 10:38:46;;;;;;;10.98;6.45;;;;;;;;;;5026200;28;20410;-39
2022/08/15 10:41:20;;;;;;;13.15;6.50;;;;;;;;;;5010044;28;20062;-40
2022/08/15 10:44:01;;;;;;;12.85;6.82;;;;;;;;;;5010191;28;20046;-42
2022/08/15 10:46:37;;;;;;;12.95;7.10;;;;;;;;;;5007809;28;20046;-40
2022/08/15 10:49:12;;;;;;;10.73;6.53;;;;;;;;;;5020948;28;20064;-43
2022/08/15 10:51:53;;;;;;;12.32;6.40;;;;;;;;;;5011409;28;20061;-39
2022/08/15 10:54:34;;;;;;;12.23;6.15;;;;;;;;;;5018656;28;20049;-39
2022/08/15 10:57:02;;;;;;;9.40;6.00;;;;;;;;;;5005215;28;20080;-39
2022/08/15 10:59:34;;;;;;;11.90;6.72;;;;;;;;;;5018248;28;20128;-39
2022/08/15 11:02:07;;;;;;;10.63;5.67;;;;;;;;;;4991926;28;20282;-40
2022/08/15 11:04:37;;;;;;;10.68;6.50;;;;;;;;;;5021229;28;20041;-39
2022/08/15 11:07:16;;;;;;;12.05;6.80;;;;;;;;;;4991067;28;20558;-39
2022/08/15 11:09:51;;;;;;;9.95;5.45;;;;;;;;;;5005551;28;20330;-42
2022/08/15 11:12:20;;;;;;;10.07;5.50;;;;;;;;;;5003594;28;20101;-40
2022/08/15 11:14:51;;;;;;;10.73;5.80;;;;;;;;;;5020351;28;20068;-41
2022/08/15 11:17:19;;;;;;;8.80;5.45;;;;;;;;;;5013304;28;20056;-42
2022/08/15 11:19:49;;;;;;;13.15;5.72;;;;;;;;;;5001381;28;20038;-39
2022/08/15 11:22:28;;;;;;;12.00;5.88;;;;;;;;;;5017023;28;20049;-48
2022/08/15 11:24:56;;;;;;;9.13;5.80;;;;;;;;;;5021720;28;20084;-39
2022/08/15 11:27:24;;;;;;;9.57;5.53;;;;;;;;;;4980179;28;20068;-40
2022/08/15 11:29:51;;;;;;;12.40;5.50;;;;;;;;;;5015533;28;20053;-42
2022/08/15 11:32:24;;;;;;;10.13;5.72;;;;;;;;;;5017588;28;20073;-40
2022/08/15 11:34:52;;;;;;;8.10;5.83;;;;;;;;;;4323709;28;10021634;-41
2022/08/15 11:37:21;;;;;;;9.95;5.72;;;;;;;;;;5008696;28;20063;-40
2022/08/15 11:39:50;;;;;;;11.30;5.72;;;;;;;;;;5013127;28;20160;-42
2022/08/15 11:42:20;;;;;;;10.02;6.00;;;;;;;;;;5014557;28;20595;-40
2022/08/15 11:44:50;;;;;;;7.83;5.67;;;;;;;;;;5010780;28;20045;-41
2022/08/15 11:47:17;;;;;;;9.10;5.43;;;;;;;;;;5015056;28;20053;-41
2022/08/15 11:49:49;;;;;;;8.80;5.50;;;;;;;;;;5021872;28;20100;-40
2022/08/15 11:52:22;;;;;;;10.80;5.90;;;;;;;;;;5010563;28;20064;-39
2022/08/15 11:55:09;;;;;;;10.68;5.50;;;;;;;;;;5020363;28;20061;-40
2022/08/15 11:57:40;;;;;;;8.07;5.30;;;;;;;;;;5011877;28;20053;-41
2022/08/15 12:00:13;;;;;;;7.35;5.35;;;;;;;;;;5000065;28;20129;-40
2022/08/15 12:02:39;;;;;;;8.93;5.50;;;;;;;;;;5017433;28;20519;-39
2022/08/15 12:05:12;;;;;;;10.75;5.10;;;;;;;;;;4657156;28;10000004;-40
2022/08/15 12:07:43;;;;;;;7.60;4.50;;;;;;;;;;4671132;28;9999834;-40
2022/08/15 12:10:22;;;;;;;11.90;4.93;;;;;;;;;;5012768;28;20064;-41
2022/08/15 12:12:49;;;;;;;9.10;4.40;;;;;;;;;;5023024;28;20093;-41
2022/08/15 12:15:17;;;;;;;8.00;4.70;;;;;;;;;;4999848;28;20107;-40
2022/08/15 12:18:01;;;;;;;7.85;4.50;;;;;;;;;;5010103;28;20327;-40
2022/08/15 12:20:37;;;;;;;8.57;4.90;;;;;;;;;;5014290;28;20054;-40
2022/08/15 12:25:59;;;;;;;7.43;4.35;;;;;;;;;;5062163;27;20378;-42
2022/08/15 12:28:26;;;;;;;9.63;5.05;;;;;;;;;;5097495;28;20152;-40
2022/08/15 12:30:55;;;;;;;7.78;4.00;;;;;;;;;;5077039;28;20400;-39
2022/08/15 12:33:22;;;;;;;7.93;4.03;;;;;;;;;;5090562;28;20071;-41
2022/08/15 12:35:51;;;;;;;6.82;4.30;;;;;;;;;;5080473;28;20043;-41
2022/08/15 12:38:17;;;;;;;6.97;4.05;;;;;;;;;;5087413;27;20107;-38
2022/08/15 12:40:44;;;;;;;8.27;3.90;;;;;;;;;;5090234;28;20107;-38
2022/08/15 12:43:12;;;;;;;6.82;4.13;;;;;;;;;;5063586;27;20039;-39
2022/08/15 12:45:39;;;;;;;6.77;4.20;;;;;;;;;;5096788;27;20040;-38
2022/08/15 12:48:08;;;;;;;7.05;4.15;;;;;;;;;;5072366;28;20036;-39
2022/08/15 12:50:35;;;;;;;6.45;3.75;;;;;;;;;;5089275;28;20039;-41
2022/08/15 12:53:02;;;;;;;7.75;3.75;;;;;;;;;;5037231;28;20831;-39
2022/08/15 12:55:30;;;;;;;7.47;3.42;;;;;;;;;;5078058;28;20413;-39
2022/08/15 12:57:57;;;;;;;6.20;3.57;;;;;;;;;;5081475;28;20112;-43
2022/08/15 13:00:26;;;;;;;7.20;3.08;;;;;;;;;;5070359;28;20054;-39
2022/08/15 13:02:53;;;;;;;8.70;3.80;;;;;;;;;;5081642;28;20043;-40
2022/08/15 13:05:23;;;;;;;6.20;3.72;;;;;;;;;;5073194;28;20044;-40
2022/08/15 13:07:49;;;;;;;8.48;3.00;;;;;;;;;;5082676;28;20043;-41
2022/08/15 13:10:19;;;;;;;5.80;3.00;;;;;;;;;;5087151;28;20389;-39
2022/08/15 13:12:45;;;;;;;6.88;3.00;;;;;;;;;;5053945;28;20052;-42
2022/08/15 13:15:12;;;;;;;7.03;3.67;;;;;;;;;;5081553;28;20044;-40
2022/08/15 13:17:40;;;;;;;6.82;3.15;;;;;;;;;;5082587;28;20040;-39
2022/08/15 13:25:47;;;;;;;6.47;2.85;;;;;;;;;;5092620;28;20067;-40
2022/08/15 13:28:14;;;;;;;6.68;2.47;;;;;;;;;;5075863;28;20413;-39
2022/08/15 13:30:40;;;;;;;6.03;2.92;;;;;;;;;;5073560;28;20036;-39
2022/08/15 13:33:09;;;;;;;5.50;2.50;;;;;;;;;;5083158;28;20095;-40
2022/08/15 13:35:36;;;;;;;6.47;2.50;;;;;;;;;;5080428;28;20036;-38
2022/08/15 13:38:03;;;;;;;6.28;3.00;;;;;;;;;;5054056;28;20572;-39
2022/08/15 13:40:30;;;;;;;5.13;2.70;;;;;;;;;;5071111;28;20434;-39
2022/08/15 13:42:59;;;;;;;6.35;2.63;;;;;;;;;;5067034;28;20075;-40
2022/08/15 13:45:26;;;;;;;7.30;2.50;;;;;;;;;;5064387;28;20040;-38
2022/08/15 13:47:53;;;;;;;6.03;2.80;;;;;;;;;;5081599;28;20505;-39
2022/08/15 13:50:21;;;;;;;4.32;1.70;;;;;;;;;;5074115;28;20032;-39
2022/08/15 13:52:50;;;;;;;4.75;2.10;;;;;;;;;;5058971;28;20131;-39
2022/08/15 13:55:17;;;;;;;5.72;2.30;;;;;;;;;;5077580;28;20529;-39
2022/08/15 13:57:44;;;;;;;4.50;2.00;;;;;;;;;;5008082;28;20765;-39
2022/08/15 14:00:11;;;;;;;5.23;2.47;;;;;;;;;;4989331;28;20818;-39
2022/08/15 14:02:40;;;;;;;7.18;2.55;;;;;;;;;;5068935;28;20059;-42
2022/08/15 14:05:08;;;;;;;4.70;2.30;;;;;;;;;;5070230;28;20040;-39
2022/08/15 14:07:36;;;;;;;7.13;2.20;;;;;;;;;;4721319;28;10000494;-45
2022/08/15 14:10:03;;;;;;;5.45;2.15;;;;;;;;;;5068114;28;20044;-40
2022/08/15 14:12:30;;;;;;;6.60;2.20;;;;;;;;;;5056979;28;20040;-39
2022/08/15 14:14:58;;;;;;;5.15;2.00;;;;;;;;;;5058562;28;20049;-41
2022/08/15 14:17:26;;;;;;;5.18;2.08;;;;;;;;;;5059340;28;20058;-40
2022/08/15 14:19:52;;;;;;;5.75;2.22;;;;;;;;;;5060524;28;20123;-40
2022/08/15 14:22:20;;;;;;;6.20;2.60;;;;;;;;;;5061427;28;20039;-38
2022/08/15 14:24:49;;;;;;;5.00;2.40;;;;;;;;;;5060446;28;20138;-39
2022/08/15 14:27:15;;;;;;;5.15;2.53;;;;;;;;;;5064401;28;20036;-39
2022/08/15 14:29:43;;;;;;;5.80;2.75;;;;;;;;;;5075059;28;20040;-39
2022/08/15 14:32:12;;;;;;;5.13;2.42;;;;;;;;;;5084501;28;20134;-40
2022/08/15 14:34:39;;;;;;;5.40;2.90;;;;;;;;;;5072854;28;20059;-39
2022/08/15 14:37:07;;;;;;;5.17;3.03;;;;;;;;;;5063316;28;20059;-39
2022/08/15 14:39:34;;;;;;;4.72;2.45;;;;;;;;;;5063415;28;20041;-39
2022/08/15 14:42:02;;;;;;;5.57;2.50;;;;;;;;;;5054045;28;20075;-40
2022/08/15 14:44:30;;;;;;;5.07;2.92;;;;;;;;;;5062169;28;20746;-42
2022/08/15 14:46:57;;;;;;;5.32;2.70;;;;;;;;;;5074243;28;20139;-42
2022/08/15 14:49:24;;;;;;;5.50;2.53;;;;;;;;;;5063015;28;20040;-39
2022/08/15 14:51:50;;;;;;;5.57;2.33;;;;;;;;;;5073624;28;20036;-39
2022/08/15 14:54:18;;;;;;;4.43;2.13;;;;;;;;;;5067482;28;20040;-40
2022/08/15 14:56:46;;;;;;;4.57;2.22;;;;;;;;;;5070712;28;20375;-39
2022/08/15 14:59:14;;;;;;;5.68;2.58;;;;;;;;;;5062745;28;20096;-39
2022/08/15 15:01:42;;;;;;;4.70;2.40;;;;;;;;;;5071455;28;20107;-39
2022/08/15 15:04:10;;;;;;;5.13;2.40;;;;;;;;;;5068334;28;20055;-40
2022/08/15 15:06:40;;;;;;;6.57;2.92;;;;;;;;;;5060682;28;20048;-40